Flight Track Log - Related Links

Times and Time Zones

All times are in EDT time to prevent confusion due to time zone crossing. See the AWI3778 flight status page for this flight to view local times or setup timezone preferences in your user account.

Time Position Orientation Groundspeed Altitude Reporting Facility
EDT Latitude Longitude Course Direction KTS MPH feet Rate Location/Type
Thu 12:50:00 PM 39.8667 -75.2833 37° Northeast 144 166 700  Level Philadelphia TRACON
Thu 12:51:00 PM 39.8333 -75.3167 218° Southwest 183 211 2,500 2,200 Climbing Philadelphia TRACON
Thu 12:52:00 PM 39.7833 -75.3333 194° South 227 261 5,100 2,265 Climbing Philadelphia TRACON
Thu 12:53:00 PM 39.8060 -74.8134 105° East  Level FlightAware Approximate
Thu 12:53:31 PM 39.7742 -75.1925 95° East 273 314 8,200  Level New York Center
Thu 12:54:00 PM 39.7848 -74.7072 105° East  Level FlightAware Approximate
Thu 12:54:32 PM 39.7761 -75.0844 89° East 285 328 10,200  Level New York Center
Thu 12:55:00 PM 39.8457 -74.6377 37° Northeast  Level FlightAware Approximate
Thu 12:55:32 PM 39.7808 -74.9578 87° East 324 373 11,300  Level New York Center
Thu 12:56:30 PM 39.7875 -74.8258 86° East 347 399 12,000 1,200 Climbing New York Center
Thu 12:57:32 PM 39.8147 -74.6978 74° East 360 414 13,700 1,513 Climbing New York Center
Thu 12:58:29 PM 39.8967 -74.6156 38° Northeast 345 397 15,000 1,271 Climbing New York Center
Thu 12:59:30 PM 39.9808 -74.5308 38° Northeast 352 405 16,200 1,140 Climbing New York Center
Thu 01:00:30 PM 40.0667 -74.4489 36° Northeast 368 423 17,300 1,082 Climbing New York Center
Thu 01:01:32 PM 40.1464 -74.3689 37° Northeast 396 456 18,400 976 Climbing New York Center
Thu 01:02:33 PM 40.2408 -74.2731 38° Northeast 396 456 19,300 1,525 Climbing New York Center
Thu 01:03:30 PM 40.3267 -74.1878 37° Northeast 401 461 21,400 1,983 Climbing New York Center
Thu 01:04:31 PM 40.4081 -74.1100 36° Northeast 386 444 23,200 1,289 Climbing New York Center
Thu 01:05:31 PM 40.4989 -74.0706 18° North 335 386 24,000 512 Climbing New York Center
Thu 01:08:02 PM 40.7556 -74.0019 11° North 374 430 25,000 283 Climbing Boston Center
Thu 01:09:03 PM 40.8667 -73.9717 12° North 387 445 25,000  Level Boston Center
Thu 01:10:01 PM 40.9692 -73.9383 14° North 401 461 25,000  Level Boston Center
Thu 01:11:02 PM 41.0842 -73.9050 12° North 413 475 25,000  Level Boston Center
Thu 01:12:02 PM 41.1992 -73.8747 11° North 418 481 25,000  Level Boston Center
Thu 01:13:02 PM 41.3122 -73.8411 13° North 412 474 25,000  Level Boston Center
Thu 01:14:03 PM 41.4272 -73.8106 11° North 412 474 25,000  Level Boston Center
Thu 01:15:00 PM 41.5381 -73.7742 14° North 412 474 25,000  Level Boston Center
Thu 01:16:01 PM 41.6489 -73.7458 11° North 412 474 25,000 -496 Level Boston Center
Thu 01:17:01 PM 41.7575 -73.7119 13° North 406 467 24,000 -496 Descending Boston Center
Thu 01:18:02 PM 41.8767 -73.6892 North 401 461 24,000  Level Boston Center
Thu 01:19:02 PM 41.9958 -73.6636 North 407 468 24,000  Level Boston Center
Thu 01:20:03 PM 42.1064 -73.6406 North 433 498 24,000  Level Boston Center
Thu 01:21:03 PM 42.2275 -73.6206 North 439 505 24,000 -153 Level Boston Center
Thu 01:22:01 PM 42.3611 -73.5919 North 439 505 23,700 -508 Descending Boston Center
Thu 01:23:01 PM 42.4864 -73.5692 North 445 512 23,000 -350 Descending Boston Center
Thu 01:24:01 PM 42.6075 -73.5431 North 445 512 23,000  Level Boston Center
Thu 01:25:03 PM 42.7308 -73.5197 North 445 512 23,000  Level Boston Center
Thu 01:26:03 PM 42.8289 -73.5017 North 445 512 23,000  Level Boston Center
Thu 01:27:01 PM 42.9522 -73.4697 11° North 424 488 23,000  Level Boston Center
Thu 01:28:01 PM 43.0711 -73.4492 North 424 488 23,000  Level Boston Center
Thu 01:29:03 PM 43.1964 -73.4225 North 424 488 23,000  Level Boston Center
Thu 01:30:03 PM 43.3114 -73.4017 North 424 488 23,000  Level Boston Center
Thu 01:31:03 PM 43.4261 -73.3778 North 419 482 23,000 -610 Level Boston Center
Thu 01:32:01 PM 43.5431 -73.3539 North 419 482 21,800 -1,613 Descending Boston Center
Thu 01:33:02 PM 43.6597 -73.3297 North 419 482 19,800 -2,033 Descending Boston Center
Thu 01:34:02 PM 43.7767 -73.3028 North 425 489 17,700 -2,132 Descending Boston Center
Thu 01:35:03 PM 43.8917 -73.2783 North 425 489 15,500 -2,132 Descending Boston Center
Thu 01:36:03 PM 43.9981 -73.2539 North 401 461 13,400 -2,085 Descending Boston Center
Thu 01:37:01 PM 44.0939 -73.2350 North 377 434 11,400 -1,815 Descending Boston Center
Thu 01:38:02 PM 44.1836 -73.2333 North 336 387 9,800 -1,636 Descending Boston Center
Thu 01:39:02 PM 44.2606 -73.2547 349° North 294 338 8,100 -1,884 Descending Boston Center
Thu 01:40:03 PM 44.3353 -73.2758 349° North 276 318 6,000 -2,132 Descending Boston Center
Thu 01:41:03 PM 44.4058 -73.3178 337° Northwest 276 318 3,800 -1,729 Descending Boston Center
Thu 01:42:01 PM 44.4686 -73.2983 12° North 237 273 2,600 -1,220 Descending Boston Center
Thu 01:43:01 PM 44.5022 -73.2406 51° Northeast 188 216 1,400 -893 Descending Boston Center
Thu 01:44:02 PM 44.4944 -73.1850 101° East 142 163 800 -545 Descending Boston Center
Thu 01:45:02 PM 44.4781 -73.1411 118° Southeast 136 157 300 -252 Descending Boston Center
Thu 01:46:01 PM 44.4694 -73.1558 231° Southwest 78 90 300 11,256 Level Boston Center
Thu 01:47:03 PM 44.4553 -73.1147 116° Southeast 78 90 23,000 10,318 Climbing Boston Center
Thu 01:48:13 PM 44.4428 -73.0797 117° Southeast 78 90 23,000  Level Boston Center

Login

Don't have an account? Register now (free) for customized features, flight alerts, and more!